Herborn, Illinois
Current Conditions -  °F | °C
As of 12:53 PM on Friday 31 Oct 2014 (Local Time) from KMTO Reporting Station
Overcast Overcast  
Wind Chill: 29°   Ceiling: 3600
Heat Index: 40°   Visibility: 10mi
Dew Point: 28°   Wind: 29mph
Humidity: 63%   Direction: 340°NNW
Pressure: 30.15"   Gusts: 37mph
Location:  39.3879°N, 88.6432°W
Report Text: KMTO 311753Z AUTO 34025G32KT 10SM BKN036 OVC045 04/M02 A3015 RMK AO2 PK WND 33034/1657 SLP213 60000 T00441022 10072 20028 50004
Loading
Personal Weather Stations






























Interactive Weather Map
Tropical Storm Tracking
New forecast layout! Learn more

10-Day Weather Forecast

Advertisements
Track Severe Weather on mobile